Time;durP1;ratioP1;P1;durP2;ratioP2;P2;SDS_P1;SDS_P2;PMS_P1;PMS_P2;Temp;Humidity;BMP_temperature;BMP_pressure;BME280_temperature;BME280_humidity;BME280_pressure;Samples;Min_cycle;Max_cycle;Signal;HPM_P1;HPM_P2
2022/07/25 00:00:55;;;;;;;6.97;2.42;;;28.50;69.60;;;;;;5040443;28;20491;-63
2022/07/25 00:03:20;;;;;;;5.78;3.22;;;28.50;69.80;;;;;;5051429;28;20028;-64
2022/07/25 00:05:46;;;;;;;7.05;2.45;;;28.50;69.80;;;;;;5050594;28;20025;-63
2022/07/25 00:08:12;;;;;;;7.13;3.33;;;28.50;69.80;;;;;;5051114;28;20457;-63
2022/07/25 00:10:37;;;;;;;7.60;2.72;;;28.50;69.80;;;;;;5051162;28;20017;-63
2022/07/25 00:13:03;;;;;;;9.98;2.55;;;28.40;69.90;;;;;;5049561;28;20532;-63
2022/07/25 00:15:29;;;;;;;5.85;2.47;;;28.40;70.00;;;;;;5051231;28;20033;-63
2022/07/25 00:17:54;;;;;;;8.75;2.95;;;28.40;70.10;;;;;;5051769;28;20366;-63
2022/07/25 00:20:20;;;;;;;9.68;3.00;;;28.30;70.10;;;;;;5049972;28;20107;-63
2022/07/25 00:22:46;;;;;;;7.53;2.55;;;28.30;70.20;;;;;;5051491;28;20029;-63
2022/07/25 00:25:11;;;;;;;5.47;2.55;;;28.20;70.20;;;;;;5063592;28;20099;-63
2022/07/25 00:27:37;;;;;;;9.75;2.90;;;28.30;70.30;;;;;;5054851;28;20029;-64
2022/07/25 00:30:06;;;;;;;7.22;3.08;;;28.20;71.00;;;;;;5053524;28;20226;-63
2022/07/25 00:32:32;;;;;;;7.72;2.80;;;28.20;70.40;;;;;;5065459;28;20033;-63
2022/07/25 00:34:58;;;;;;;5.90;2.63;;;28.20;70.50;;;;;;5055060;28;20086;-63
2022/07/25 00:37:23;;;;;;;7.07;3.00;;;28.20;70.60;;;;;;5054852;28;20045;-63
2022/07/25 00:39:49;;;;;;;8.63;3.22;;;28.20;70.70;;;;;;5054960;28;20032;-63
2022/07/25 00:42:15;;;;;;;9.45;3.53;;;28.10;70.80;;;;;;5063946;28;20609;-63
2022/07/25 00:44:40;;;;;;;6.82;3.03;;;28.10;70.80;;;;;;5056143;28;20024;-63
2022/07/25 00:47:06;;;;;;;6.63;3.10;;;28.10;70.90;;;;;;5054789;28;20499;-63
2022/07/25 00:49:32;;;;;;;8.23;3.22;;;28.10;71.10;;;;;;5051197;28;20123;-63
2022/07/25 00:51:59;;;;;;;10.50;3.30;;;28.10;71.30;;;;;;5044598;28;20036;-63
2022/07/25 00:54:25;;;;;;;9.25;3.78;;;28.00;71.30;;;;;;5067261;28;20288;-63
2022/07/25 00:56:50;;;;;;;10.88;4.07;;;28.00;71.30;;;;;;5054646;28;20047;-63
2022/07/25 00:59:17;;;;;;;6.57;3.30;;;28.00;71.40;;;;;;5066955;28;20372;-63
2022/07/25 01:01:46;;;;;;;6.40;3.47;;;28.00;71.40;;;;;;5054786;28;20047;-63
2022/07/25 01:04:13;;;;;;;7.60;3.15;;;27.90;71.40;;;;;;5058526;28;20418;-64
2022/07/25 01:06:38;;;;;;;6.47;3.70;;;27.90;71.40;;;;;;5063401;28;20465;-63
2022/07/25 01:09:06;;;;;;;8.45;3.75;;;27.90;71.50;;;;;;5053606;28;20036;-63
2022/07/25 01:11:31;;;;;;;11.55;3.92;;;27.90;71.70;;;;;;5054830;28;20498;-63
2022/07/25 01:13:57;;;;;;;11.85;4.70;;;27.80;71.70;;;;;;5054291;28;20104;-63
2022/07/25 01:16:23;;;;;;;9.25;4.28;;;27.80;71.70;;;;;;5062127;28;20036;-64
2022/07/25 01:18:48;;;;;;;10.82;4.15;;;27.80;71.80;;;;;;5055091;28;20043;-63
2022/07/25 01:21:14;;;;;;;8.75;4.40;;;27.80;71.90;;;;;;5054207;28;20369;-63
2022/07/25 01:23:40;;;;;;;9.40;4.93;;;27.70;71.80;;;;;;5053327;28;20032;-63
2022/07/25 01:26:06;;;;;;;9.15;4.40;;;27.70;71.90;;;;;;5054124;28;20036;-63
2022/07/25 01:28:32;;;;;;;7.85;4.50;;;27.70;71.90;;;;;;5048362;28;20025;-63
2022/07/25 01:30:58;;;;;;;9.23;4.55;;;27.70;72.00;;;;;;5034809;28;20041;-63
2022/07/25 01:33:24;;;;;;;8.77;4.85;;;27.60;71.90;;;;;;5038454;28;20033;-63
2022/07/25 01:35:49;;;;;;;8.90;5.20;;;27.60;72.00;;;;;;5051201;28;20512;-63
2022/07/25 01:38:16;;;;;;;8.98;5.15;;;27.60;72.00;;;;;;5049077;28;20032;-63
2022/07/25 01:40:42;;;;;;;8.30;4.85;;;27.60;72.10;;;;;;5058550;28;20036;-63
2022/07/25 01:43:09;;;;;;;10.13;4.85;;;27.60;72.10;;;;;;5068244;28;20017;-64
2022/07/25 01:45:35;;;;;;;10.77;5.72;;;27.50;72.20;;;;;;5048641;28;20038;-63
2022/07/25 01:48:01;;;;;;;8.25;5.30;;;27.50;72.20;;;;;;5060121;28;20426;-63
2022/07/25 01:50:27;;;;;;;11.70;5.53;;;27.50;72.40;;;;;;5053090;28;20032;-63
2022/07/25 01:52:52;;;;;;;10.07;5.55;;;27.50;72.40;;;;;;5053150;28;20045;-63
2022/07/25 01:55:18;;;;;;;12.85;5.20;;;27.40;72.30;;;;;;5053584;28;20477;-63
2022/07/25 01:57:44;;;;;;;12.48;5.15;;;27.40;72.40;;;;;;5053416;28;20041;-64
2022/07/25 02:00:12;;;;;;;8.38;5.75;;;27.30;72.30;;;;;;5058227;28;20075;-63
2022/07/25 02:02:40;;;;;;;9.05;5.60;;;27.30;72.40;;;;;;5060797;28;20040;-63
2022/07/25 02:05:07;;;;;;;10.35;5.38;;;27.20;72.50;;;;;;5052459;28;20477;-64
2022/07/25 02:07:33;;;;;;;15.88;6.03;;;27.30;72.60;;;;;;5051059;28;20481;-63
2022/07/25 02:09:59;;;;;;;14.45;6.75;;;27.20;72.50;;;;;;5055786;28;20107;-63
2022/07/25 02:12:24;;;;;;;9.20;5.90;;;27.20;72.50;;;;;;5053946;28;20041;-63
2022/07/25 02:14:50;;;;;;;10.10;5.85;;;27.10;72.50;;;;;;5052957;28;20053;-63
2022/07/25 02:17:16;;;;;;;13.60;6.03;;;27.10;72.60;;;;;;5052625;28;20086;-63
2022/07/25 02:19:41;;;;;;;11.93;6.28;;;27.10;72.60;;;;;;5052298;28;20186;-68
2022/07/25 02:22:07;;;;;;;11.45;6.57;;;27.10;72.40;;;;;;5055410;28;20025;-63
2022/07/25 02:24:33;;;;;;;16.70;6.07;;;27.00;72.50;;;;;;5053174;28;20040;-63
2022/07/25 02:26:59;;;;;;;12.32;7.20;;;27.00;72.80;;;;;;5051707;28;20085;-63
2022/07/25 02:29:24;;;;;;;11.70;5.75;;;26.90;72.70;;;;;;5052265;28;20040;-63
2022/07/25 02:31:51;;;;;;;13.93;7.57;;;26.90;73.10;;;;;;5052446;28;20025;-63
2022/07/25 02:34:17;;;;;;;11.95;6.75;;;26.80;72.80;;;;;;5052353;28;20060;-63
2022/07/25 02:36:44;;;;;;;10.23;6.60;;;26.80;72.60;;;;;;5047280;28;20477;-63
2022/07/25 02:39:10;;;;;;;9.10;6.07;;;26.70;72.60;;;;;;5045383;28;20033;-63
2022/07/25 02:41:36;;;;;;;9.38;5.38;;;26.70;72.80;;;;;;5051504;28;20120;-64
2022/07/25 02:44:02;;;;;;;9.60;6.07;;;26.60;72.80;;;;;;5053112;28;20045;-63
2022/07/25 02:46:31;;;;;;;10.27;6.25;;;26.60;72.90;;;;;;5051967;28;20469;-63
2022/07/25 02:48:57;;;;;;;15.65;5.97;;;26.60;72.80;;;;;;5053642;28;20499;-63
2022/07/25 02:51:23;;;;;;;8.38;5.75;;;26.60;73.50;;;;;;5053869;28;20041;-63
2022/07/25 02:53:49;;;;;;;10.05;6.25;;;26.50;73.00;;;;;;5054775;28;20060;-63
2022/07/25 02:56:15;;;;;;;9.93;6.53;;;26.50;73.20;;;;;;5041603;28;20493;-63
2022/07/25 02:58:41;;;;;;;11.57;6.63;;;26.50;73.20;;;;;;5057913;28;20444;-63
2022/07/25 03:01:06;;;;;;;10.27;6.30;;;26.50;73.00;;;;;;5054893;28;20029;-63
2022/07/25 03:03:32;;;;;;;10.15;6.03;;;26.50;73.20;;;;;;5051801;28;20057;-63
2022/07/25 03:05:58;;;;;;;12.93;6.40;;;26.50;73.40;;;;;;5053538;28;20052;-63
2022/07/25 03:08:23;;;;;;;10.25;6.63;;;26.40;73.40;;;;;;5059201;28;20083;-63
2022/07/25 03:10:49;;;;;;;11.15;6.20;;;26.50;73.50;;;;;;5059257;28;20029;-63
2022/07/25 03:13:15;;;;;;;10.20;6.35;;;26.50;74.10;;;;;;5051796;28;20078;-63
2022/07/25 03:15:40;;;;;;;16.88;6.10;;;26.50;73.50;;;;;;5055467;28;20127;-63
2022/07/25 03:18:06;;;;;;;9.65;5.93;;;26.50;73.50;;;;;;5051154;28;20060;-63
2022/07/25 03:20:32;;;;;;;9.77;6.15;;;26.40;73.60;;;;;;5057406;28;20024;-63
2022/07/25 03:22:58;;;;;;;10.05;5.45;;;26.40;73.70;;;;;;5061083;28;20029;-63
2022/07/25 03:25:23;;;;;;;9.27;6.03;;;26.40;74.00;;;;;;5052063;28;20033;-63
2022/07/25 03:27:49;;;;;;;8.88;5.57;;;26.40;74.20;;;;;;5052167;28;20388;-63
2022/07/25 03:30:15;;;;;;;10.57;5.68;;;26.40;74.40;;;;;;5042310;28;20036;-63
2022/07/25 03:32:40;;;;;;;12.93;5.82;;;26.30;74.20;;;;;;5049093;28;20036;-63
2022/07/25 03:35:06;;;;;;;10.23;6.05;;;26.40;74.30;;;;;;5051855;28;20037;-63
2022/07/25 03:37:32;;;;;;;9.32;5.70;;;26.30;74.10;;;;;;5050843;28;20025;-63
2022/07/25 03:39:58;;;;;;;8.98;6.45;;;26.30;73.90;;;;;;5052049;28;20369;-63
2022/07/25 03:42:23;;;;;;;9.95;6.60;;;26.30;74.10;;;;;;5054570;28;20074;-63
2022/07/25 03:44:49;;;;;;;10.30;5.68;;;26.20;74.30;;;;;;5059698;28;20037;-63
2022/07/25 03:47:15;;;;;;;8.82;6.45;;;26.20;74.50;;;;;;5054611;28;20035;-63
2022/07/25 03:49:40;;;;;;;8.60;5.55;;;26.20;74.80;;;;;;5060676;28;20111;-63
2022/07/25 03:52:06;;;;;;;7.88;5.70;;;26.20;74.80;;;;;;5049728;28;20024;-64
2022/07/25 03:54:32;;;;;;;10.15;6.18;;;26.20;74.90;;;;;;5052209;28;20029;-63
2022/07/25 03:56:57;;;;;;;9.90;6.00;;;26.20;75.10;;;;;;5050994;28;20037;-63
2022/07/25 03:59:23;;;;;;;8.43;6.32;;;26.20;75.00;;;;;;5049878;28;20384;-63
2022/07/25 04:01:49;;;;;;;8.20;5.88;;;26.20;75.00;;;;;;5051078;28;20111;-63
2022/07/25 04:04:15;;;;;;;14.38;6.43;;;26.20;75.00;;;;;;5043848;28;20025;-63
2022/07/25 04:06:41;;;;;;;13.32;6.95;;;26.20;75.10;;;;;;5046424;28;20017;-63
2022/07/25 04:09:08;;;;;;;13.23;7.47;;;26.10;75.10;;;;;;5060633;28;20032;-63
2022/07/25 04:11:34;;;;;;;10.48;7.47;;;26.10;74.90;;;;;;5067510;28;20551;-63
2022/07/25 04:14:01;;;;;;;9.85;6.82;;;26.10;74.60;;;;;;5050785;28;20025;-63
2022/07/25 04:16:27;;;;;;;13.02;6.68;;;26.10;74.50;;;;;;5050486;28;20762;-63
2022/07/25 04:18:53;;;;;;;10.30;7.22;;;26.10;74.40;;;;;;5051742;28;20082;-63
2022/07/25 04:21:19;;;;;;;11.45;8.18;;;26.10;74.30;;;;;;5049782;28;20071;-63
2022/07/25 04:23:45;;;;;;;10.10;7.45;;;26.10;74.30;;;;;;5051854;28;20469;-63
2022/07/25 04:26:10;;;;;;;14.82;8.80;;;26.10;74.30;;;;;;5049678;28;20029;-63
2022/07/25 04:28:36;;;;;;;14.27;7.72;;;26.10;74.20;;;;;;5060204;28;20025;-63
2022/07/25 04:31:02;;;;;;;12.07;8.82;;;26.10;74.30;;;;;;5053355;28;20048;-63
2022/07/25 04:33:27;;;;;;;12.70;8.05;;;26.10;74.40;;;;;;5050452;28;20032;-63
2022/07/25 04:35:53;;;;;;;14.82;8.73;;;26.10;74.40;;;;;;5053690;28;20400;-63
2022/07/25 04:38:19;;;;;;;16.45;8.27;;;26.00;74.20;;;;;;5060044;28;20079;-63
2022/07/25 04:40:45;;;;;;;12.20;7.90;;;26.10;74.30;;;;;;5050065;28;20029;-63
2022/07/25 04:43:11;;;;;;;12.43;8.00;;;26.00;74.30;;;;;;5050831;28;20025;-63
2022/07/25 04:45:37;;;;;;;15.68;8.50;;;26.00;74.40;;;;;;5050459;28;20040;-63
2022/07/25 04:48:03;;;;;;;13.55;8.02;;;26.00;74.50;;;;;;5050772;28;20033;-63
2022/07/25 04:50:29;;;;;;;11.13;7.60;;;26.00;74.50;;;;;;5061713;28;20055;-63
2022/07/25 04:52:55;;;;;;;12.07;8.50;;;26.00;74.20;;;;;;5051225;28;20476;-63
2022/07/25 04:55:21;;;;;;;14.82;8.15;;;25.90;74.80;;;;;;5048915;28;20661;-63
2022/07/25 04:57:47;;;;;;;12.38;7.72;;;25.90;74.60;;;;;;5051236;28;20025;-63
2022/07/25 05:00:14;;;;;;;11.82;8.02;;;25.90;74.70;;;;;;5062261;28;20078;-63
2022/07/25 05:02:40;;;;;;;13.48;8.38;;;25.90;74.60;;;;;;5067268;28;20112;-63
2022/07/25 05:05:09;;;;;;;13.52;9.27;;;25.80;74.80;;;;;;5062701;28;20354;-63
2022/07/25 05:07:36;;;;;;;12.70;8.55;;;25.90;75.20;;;;;;5051082;28;20033;-63
2022/07/25 05:10:02;;;;;;;13.30;8.00;;;25.90;75.20;;;;;;5050027;28;20021;-63
2022/07/25 05:12:28;;;;;;;10.73;8.20;;;25.90;75.40;;;;;;5063098;28;20040;-63
2022/07/25 05:14:54;;;;;;;16.30;9.10;;;25.80;75.30;;;;;;5055105;28;20033;-63
2022/07/25 05:17:20;;;;;;;14.10;8.07;;;25.90;75.70;;;;;;5053930;28;20029;-63
2022/07/25 05:19:45;;;;;;;23.80;9.63;;;25.90;75.60;;;;;;5054051;28;20025;-63
2022/07/25 05:22:11;;;;;;;14.43;9.43;;;25.90;75.90;;;;;;5054417;28;20468;-63
2022/07/25 05:24:37;;;;;;;19.55;9.13;;;25.90;76.00;;;;;;5053553;28;20036;-63
2022/07/25 05:27:04;;;;;;;14.73;9.57;;;25.90;76.20;;;;;;5054649;28;20549;-63
2022/07/25 05:29:30;;;;;;;14.80;8.70;;;25.90;77.00;;;;;;5054701;28;20456;-63
2022/07/25 05:31:56;;;;;;;23.13;9.75;;;25.90;76.30;;;;;;5060726;28;20036;-63
2022/07/25 05:34:22;;;;;;;17.85;8.75;;;25.90;76.40;;;;;;5062186;28;20037;-63
2022/07/25 05:36:48;;;;;;;13.45;8.15;;;25.90;76.00;;;;;;5053131;28;20041;-63
2022/07/25 05:39:13;;;;;;;14.13;8.23;;;25.90;75.40;;;;;;5053414;28;20143;-63
2022/07/25 05:41:39;;;;;;;14.20;8.15;;;25.90;75.10;;;;;;5053953;28;20090;-63
2022/07/25 05:44:05;;;;;;;17.23;8.63;;;25.80;74.90;;;;;;5053134;28;20075;-63
2022/07/25 05:46:34;;;;;;;14.43;7.63;;;25.80;75.10;;;;;;5054172;28;20033;-63
2022/07/25 05:49:00;;;;;;;13.57;8.18;;;25.80;75.30;;;;;;5053682;28;20463;-63
2022/07/25 05:51:26;;;;;;;10.50;7.70;;;25.80;75.20;;;;;;5052690;28;20064;-63
2022/07/25 05:53:54;;;;;;;15.82;8.75;;;25.80;75.00;;;;;;5053372;28;20045;-63
2022/07/25 05:56:20;;;;;;;11.55;7.55;;;25.70;74.90;;;;;;5055510;28;20040;-63
2022/07/25 05:58:45;;;;;;;11.93;7.45;;;25.70;74.90;;;;;;5057851;28;20047;-63
2022/07/25 06:01:15;;;;;;;14.93;8.65;;;25.70;75.10;;;;;;5058025;28;20479;-63
2022/07/25 06:03:41;;;;;;;14.40;7.38;;;25.80;75.20;;;;;;5058382;28;20029;-63
2022/07/25 06:06:07;;;;;;;11.75;7.88;;;25.70;75.10;;;;;;5060266;28;20036;-63
2022/07/25 06:08:37;;;;;;;15.68;7.78;;;25.70;75.40;;;;;;5053588;28;20420;-63
2022/07/25 06:11:03;;;;;;;13.80;7.72;;;25.70;75.60;;;;;;5056205;28;20037;-63
2022/07/25 06:13:29;;;;;;;12.68;7.75;;;25.70;75.50;;;;;;5059154;28;20057;-63
2022/07/25 06:15:55;;;;;;;14.23;6.80;;;25.70;75.40;;;;;;5057385;28;20071;-63
2022/07/25 06:18:21;;;;;;;12.48;7.60;;;25.70;74.90;;;;;;5057178;28;20029;-63
2022/07/25 06:20:47;;;;;;;13.43;7.28;;;25.70;75.20;;;;;;5057364;28;20040;-63
2022/07/25 06:23:13;;;;;;;12.52;7.50;;;25.70;75.00;;;;;;5054034;28;20029;-63
2022/07/25 06:25:39;;;;;;;11.65;8.00;;;25.70;75.20;;;;;;5056694;28;20036;-63
2022/07/25 06:28:04;;;;;;;13.55;8.07;;;25.70;75.30;;;;;;5054178;28;20693;-63
2022/07/25 06:30:33;;;;;;;10.73;7.60;;;25.70;75.60;;;;;;5055066;28;20021;-63
2022/07/25 06:32:59;;;;;;;16.60;7.85;;;25.70;75.80;;;;;;5055299;28;20048;-63
2022/07/25 06:35:25;;;;;;;14.00;6.28;;;25.70;75.30;;;;;;5058135;28;20537;-63
2022/07/25 06:37:50;;;;;;;10.65;7.07;;;25.70;74.70;;;;;;5060230;28;20386;-63
2022/07/25 06:40:16;;;;;;;12.75;6.78;;;25.80;74.90;;;;;;5052026;28;20053;-63
2022/07/25 06:42:43;;;;;;;9.85;5.93;;;25.80;75.00;;;;;;5056837;28;20029;-63
2022/07/25 06:45:11;;;;;;;10.70;6.88;;;25.80;74.50;;;;;;5059530;28;20017;-63
2022/07/25 06:47:38;;;;;;;11.10;6.72;;;25.80;74.50;;;;;;5054847;28;20025;-63
2022/07/25 06:50:08;;;;;;;12.73;7.50;;;25.80;74.90;;;;;;5060020;28;20075;-63
2022/07/25 06:52:34;;;;;;;14.00;6.65;;;25.80;75.00;;;;;;5053872;28;20142;-63
2022/07/25 06:55:01;;;;;;;14.60;6.90;;;25.80;75.00;;;;;;5058560;28;20115;-63
2022/07/25 06:57:26;;;;;;;13.43;5.95;;;25.80;75.80;;;;;;5051918;28;20029;-63
2022/07/25 06:59:52;;;;;;;7.88;4.75;;;25.80;74.80;;;;;;5061176;28;20064;-63
2022/07/25 07:02:18;;;;;;;12.13;6.07;;;25.80;75.40;;;;;;5052822;28;20036;-63
2022/07/25 07:04:44;;;;;;;12.20;7.53;;;25.90;75.10;;;;;;5056096;28;20472;-63
2022/07/25 07:07:09;;;;;;;10.40;6.25;;;25.90;75.50;;;;;;5056545;28;20036;-63
2022/07/25 07:09:35;;;;;;;10.73;7.20;;;25.90;75.30;;;;;;5060360;28;20020;-63
2022/07/25 07:12:01;;;;;;;9.95;6.35;;;25.90;75.60;;;;;;5060218;28;20426;-64
2022/07/25 07:14:26;;;;;;;7.10;3.85;;;25.90;75.80;;;;;;5050786;28;20398;-63
2022/07/25 07:16:52;;;;;;;6.95;4.15;;;26.00;75.30;;;;;;5051482;28;20118;-66
2022/07/25 07:19:18;;;;;;;10.23;5.57;;;26.00;75.50;;;;;;5051387;28;20376;-66
2022/07/25 07:21:44;;;;;;;9.90;5.78;;;26.00;75.60;;;;;;5054394;28;20028;-66
2022/07/25 07:24:10;;;;;;;5.35;3.90;;;26.00;75.80;;;;;;5054089;28;20024;-66
2022/07/25 07:26:36;;;;;;;9.50;5.90;;;26.00;75.80;;;;;;5053291;28;20035;-66
2022/07/25 07:29:02;;;;;;;7.45;4.38;;;26.10;76.30;;;;;;5052226;28;20071;-66
2022/07/25 07:31:28;;;;;;;7.88;4.82;;;26.00;76.10;;;;;;5054394;28;20508;-66
2022/07/25 07:33:54;;;;;;;6.43;3.40;;;26.00;76.40;;;;;;5056055;28;20684;-66
2022/07/25 07:36:21;;;;;;;8.15;4.07;;;26.00;76.40;;;;;;5055475;28;20041;-63
2022/07/25 07:38:47;;;;;;;11.90;6.00;;;26.00;76.60;;;;;;5051690;28;20036;-63
2022/07/25 07:41:14;;;;;;;5.80;3.85;;;26.00;77.00;;;;;;5051488;28;20055;-63
2022/07/25 07:43:42;;;;;;;11.60;5.72;;;26.00;76.70;;;;;;5054234;28;20110;-63
2022/07/25 07:46:08;;;;;;;7.53;4.93;;;26.00;77.30;;;;;;5055322;28;20017;-63
2022/07/25 07:48:33;;;;;;;11.45;5.97;;;26.00;76.90;;;;;;5052646;28;20051;-63
2022/07/25 07:51:03;;;;;;;12.95;5.53;;;26.00;77.90;;;;;;5057983;28;20047;-63
2022/07/25 07:56:15;;;;;;;9.40;4.47;;;26.00;76.90;;;;;;5054358;28;20043;-63
2022/07/25 07:58:41;;;;;;;5.60;4.32;;;26.10;77.10;;;;;;5059212;28;20086;-63
2022/07/25 08:01:07;;;;;;;6.05;3.97;;;26.10;76.90;;;;;;5054470;28;20024;-63
2022/07/25 08:03:33;;;;;;;5.55;3.00;;;26.10;76.80;;;;;;5052306;28;20025;-63
2022/07/25 08:05:58;;;;;;;9.52;5.95;;;26.10;76.70;;;;;;5059434;28;20029;-63
2022/07/25 08:08:24;;;;;;;4.70;3.22;;;26.20;77.30;;;;;;5051422;28;20036;-64
2022/07/25 08:10:50;;;;;;;10.10;5.82;;;26.20;77.00;;;;;;5056424;28;20036;-63
2022/07/25 08:13:18;;;;;;;6.90;4.53;;;26.20;77.10;;;;;;5055504;28;20416;-63
2022/07/25 08:15:50;;;;;;;6.43;3.60;;;26.20;77.00;;;;;;5062444;28;20079;-63
2022/07/25 08:18:16;;;;;;;10.63;5.50;;;26.20;76.80;;;;;;5055649;28;20029;-63
2022/07/25 08:20:42;;;;;;;12.23;5.68;;;26.20;77.00;;;;;;5059629;28;20464;-63
2022/07/25 08:23:09;;;;;;;4.43;2.60;;;26.30;76.90;;;;;;5055661;28;20498;-63
2022/07/25 08:25:35;;;;;;;10.57;5.22;;;26.30;76.70;;;;;;5059803;28;20041;-63
2022/07/25 08:28:01;;;;;;;10.15;5.35;;;26.40;77.20;;;;;;5059192;28;20111;-63
2022/07/25 08:30:27;;;;;;;10.23;5.78;;;26.30;77.00;;;;;;5057772;28;20059;-63
2022/07/25 08:32:58;;;;;;;13.05;7.40;;;26.40;77.20;;;;;;5047590;28;20021;-63
2022/07/25 08:35:26;;;;;;;10.57;5.82;;;26.40;77.60;;;;;;5050164;28;20092;-63
2022/07/25 08:37:53;;;;;;;7.68;5.13;;;26.50;77.10;;;;;;5046548;28;20056;-63
2022/07/25 08:40:22;;;;;;;7.93;4.95;;;26.50;77.10;;;;;;5052848;28;20068;-63
2022/07/25 08:42:48;;;;;;;10.13;4.60;;;26.50;77.30;;;;;;5054904;28;20078;-63
2022/07/25 08:45:18;;;;;;;13.13;5.28;;;26.60;77.00;;;;;;5053407;28;20549;-64
2022/07/25 08:47:46;;;;;;;10.98;5.75;;;26.50;77.30;;;;;;5058681;28;20025;-63
2022/07/25 08:50:14;;;;;;;8.05;5.13;;;26.60;77.00;;;;;;5060755;28;20025;-63
2022/07/25 08:52:42;;;;;;;9.15;3.92;;;26.60;77.20;;;;;;5058907;28;20506;-63
2022/07/25 08:55:13;;;;;;;8.35;5.57;;;26.60;76.90;;;;;;5057346;28;20025;-63
2022/07/25 08:57:42;;;;;;;16.63;4.80;;;26.60;77.00;;;;;;5055068;28;20392;-63
2022/07/25 09:00:11;;;;;;;6.72;4.47;;;26.60;76.70;;;;;;5054914;28;20491;-63
2022/07/25 09:02:37;;;;;;;8.45;4.43;;;26.60;76.50;;;;;;5058450;28;20037;-64
2022/07/25 09:05:04;;;;;;;6.35;3.42;;;26.70;76.30;;;;;;5055477;28;20028;-63
2022/07/25 09:07:34;;;;;;;7.10;3.88;;;26.70;76.40;;;;;;5058750;28;20043;-63
2022/07/25 09:10:16;;;;;;;6.32;3.42;;;26.60;76.30;;;;;;5054944;28;20048;-67
2022/07/25 09:12:51;;;;;;;5.40;2.87;;;26.60;76.30;;;;;;5056448;28;20020;-63
2022/07/25 09:15:28;;;;;;;4.55;2.38;;;26.60;75.80;;;;;;5058058;28;20293;-63
2022/07/25 09:17:55;;;;;;;5.30;2.15;;;26.70;75.70;;;;;;5054905;28;20039;-63
2022/07/25 09:20:21;;;;;;;3.50;2.40;;;26.60;75.30;;;;;;5056808;28;20079;-63
2022/07/25 09:22:47;;;;;;;4.72;2.67;;;26.60;75.50;;;;;;5059589;28;20537;-63
2022/07/25 09:25:24;;;;;;;4.68;2.50;;;26.60;75.60;;;;;;5057344;28;20036;-63
2022/07/25 09:27:50;;;;;;;3.20;1.45;;;26.60;75.70;;;;;;5057790;28;20112;-63
2022/07/25 09:30:16;;;;;;;2.17;1.55;;;26.60;75.40;;;;;;5051297;28;20463;-63
2022/07/25 09:32:42;;;;;;;1.88;1.48;;;26.60;75.20;;;;;;5054757;28;20029;-63
2022/07/25 09:35:08;;;;;;;6.32;1.90;;;26.60;75.00;;;;;;5056675;28;20111;-63
2022/07/25 09:37:33;;;;;;;1.70;1.00;;;26.60;74.80;;;;;;5055616;28;20043;-63
2022/07/25 09:39:59;;;;;;;4.15;1.20;;;26.50;74.80;;;;;;5057855;28;20095;-63
2022/07/25 09:42:31;;;;;;;4.10;1.58;;;26.50;74.80;;;;;;5052398;28;20097;-63
2022/07/25 09:45:11;;;;;;;6.68;2.00;;;26.50;75.00;;;;;;5057440;28;20082;-63
2022/07/25 09:47:51;;;;;;;3.03;1.60;;;26.50;75.10;;;;;;5058454;28;20031;-63
2022/07/25 09:50:17;;;;;;;3.22;1.83;;;26.50;75.10;;;;;;5061281;28;20079;-63
2022/07/25 09:52:45;;;;;;;4.15;2.20;;;26.50;75.30;;;;;;5059453;28;20049;-64
2022/07/25 09:55:12;;;;;;;3.55;1.58;;;26.50;75.40;;;;;;5053405;28;20502;-64
2022/07/25 09:57:39;;;;;;;7.35;2.58;;;26.50;75.50;;;;;;5049795;28;20032;-63
2022/07/25 10:00:07;;;;;;;3.10;2.03;;;26.60;75.80;;;;;;5055986;28;20539;-63
2022/07/25 10:03:00;;;;;;;5.30;2.92;;;26.50;75.90;;;;;;5062376;28;20098;-63
2022/07/25 10:06:08;;;;;;;2.30;1.70;;;26.60;75.30;;;;;;5040346;28;20128;-64
2022/07/25 10:08:38;;;;;;;0.85;0.75;;;26.60;75.30;;;;;;4996708;28;20038;-63
2022/07/25 10:11:05;;;;;;;2.13;1.52;;;26.60;74.80;;;;;;5040398;28;20033;-63
2022/07/25 10:13:35;;;;;;;3.00;1.10;;;26.60;74.30;;;;;;5052846;28;20131;-63
2022/07/25 10:16:01;;;;;;;1.85;1.55;;;26.60;73.70;;;;;;5055902;28;20048;-63
2022/07/25 10:18:29;;;;;;;4.72;1.10;;;26.60;73.40;;;;;;5055857;28;20035;-63
2022/07/25 10:21:11;;;;;;;2.78;1.35;;;26.60;72.70;;;;;;5053209;28;20029;-63
2022/07/25 10:23:37;;;;;;;10.55;1.33;;;26.60;72.00;;;;;;5050741;28;20472;-63
2022/07/25 10:26:15;;;;;;;0.80;0.52;;;26.60;71.40;;;;;;5051653;28;20037;-63
2022/07/25 10:28:45;;;;;;;2.70;1.13;;;26.50;71.40;;;;;;5063647;28;20044;-63
2022/07/25 10:31:14;;;;;;;0.80;0.80;;;26.50;71.70;;;;;;5052082;28;20042;-63
2022/07/25 10:33:41;;;;;;;2.17;0.90;;;26.40;72.10;;;;;;5054863;28;20028;-63
2022/07/25 10:36:07;;;;;;;2.88;1.10;;;26.40;72.00;;;;;;5051779;28;20037;-63
2022/07/25 10:38:33;;;;;;;2.92;1.33;;;26.40;72.30;;;;;;5052219;28;20509;-63
2022/07/25 10:41:03;;;;;;;3.70;1.48;;;26.40;72.70;;;;;;5058920;28;20033;-63
2022/07/25 10:43:36;;;;;;;4.88;1.83;;;26.40;73.00;;;;;;5058788;28;20025;-63
2022/07/25 10:46:16;;;;;;;2.45;1.35;;;26.40;73.10;;;;;;5051310;28;20039;-62
2022/07/25 10:48:42;;;;;;;3.40;1.27;;;26.50;73.30;;;;;;5056005;28;20057;-62
2022/07/25 10:51:12;;;;;;;5.20;1.50;;;26.50;73.70;;;;;;5059578;28;20094;-64
2022/07/25 10:53:42;;;;;;;5.25;1.70;;;26.40;74.10;;;;;;5053106;28;20167;-64
2022/07/25 10:56:20;;;;;;;4.47;1.60;;;26.50;74.80;;;;;;5055504;28;20039;-63
2022/07/25 10:58:58;;;;;;;2.85;1.95;;;26.50;75.40;;;;;;5060937;28;20032;-64
2022/07/25 11:01:27;;;;;;;3.38;1.92;;;26.50;76.20;;;;;;5056901;28;20037;-63
2022/07/25 11:03:55;;;;;;;5.15;2.08;;;26.50;76.90;;;;;;5048982;28;20040;-62
2022/07/25 11:06:37;;;;;;;4.50;2.10;;;26.50;76.60;;;;;;5047062;28;20041;-62
2022/07/25 11:09:12;;;;;;;0.60;0.57;;;26.50;77.00;;;;;;5046916;28;20025;-62
2022/07/25 11:11:46;;;;;;;2.88;1.40;;;26.50;76.30;;;;;;5055179;28;20040;-62
2022/07/25 11:14:15;;;;;;;3.22;1.92;;;26.50;76.90;;;;;;5049164;28;20769;-62
2022/07/25 11:16:44;;;;;;;2.15;1.25;;;26.50;77.30;;;;;;5049448;28;20511;-62
2022/07/25 11:19:27;;;;;;;7.70;1.63;;;26.50;77.80;;;;;;5049449;28;20152;-63
2022/07/25 11:21:58;;;;;;;0.90;0.68;;;26.50;78.30;;;;;;5048500;28;20032;-62
2022/07/25 11:24:44;;;;;;;4.25;1.35;;;26.50;78.40;;;;;;5049373;28;20068;-63
2022/07/25 11:27:19;;;;;;;;;;;26.40;78.70;;;;;;5049636;28;20472;-62
2022/07/25 11:29:45;;;;;;;1.30;1.05;;;26.40;79.00;;;;;;5048672;28;20391;-62
2022/07/25 11:32:12;;;;;;;2.80;1.52;;;26.40;79.40;;;;;;5049124;28;20061;-63
2022/07/25 11:34:46;;;;;;;5.05;1.50;;;26.40;79.60;;;;;;5049714;28;20072;-62
2022/07/25 11:37:16;;;;;;;1.58;1.25;;;26.40;79.90;;;;;;5052475;28;20072;-66
2022/07/25 11:39:43;;;;;;;5.68;1.98;;;26.40;79.90;;;;;;5049800;28;20480;-63
2022/07/25 11:42:18;;;;;;;4.32;1.80;;;26.40;79.80;;;;;;5050061;28;20033;-62
2022/07/25 11:44:45;;;;;;;3.15;1.00;;;26.40;79.80;;;;;;5048699;28;20021;-62
2022/07/25 11:47:25;;;;;;;2.72;1.00;;;26.40;79.50;;;;;;5049995;28;20024;-62
2022/07/25 11:49:53;;;;;;;3.70;1.52;;;26.40;79.30;;;;;;5050650;28;20488;-63
2022/07/25 11:52:34;;;;;;;1.58;0.90;;;26.40;79.50;;;;;;5056265;28;20090;-63
2022/07/25 11:55:07;;;;;;;3.33;1.70;;;26.40;79.50;;;;;;5060027;28;20029;-63
2022/07/25 11:57:40;;;;;;;8.15;1.73;;;26.40;79.10;;;;;;5055025;28;20431;-63
2022/07/25 12:00:10;;;;;;;4.35;1.48;;;26.40;79.10;;;;;;5056202;28;20028;-63
2022/07/25 12:02:36;;;;;;;5.07;1.10;;;26.40;78.90;;;;;;5053804;28;20041;-62
2022/07/25 12:05:11;;;;;;;1.58;1.00;;;26.40;78.80;;;;;;5042411;28;20043;-63
2022/07/25 12:07:51;;;;;;;3.60;1.10;;;26.40;78.60;;;;;;5054823;28;20029;-63
2022/07/25 12:10:21;;;;;;;2.15;1.17;;;26.40;79.00;;;;;;5045491;28;20498;-63
2022/07/25 12:12:52;;;;;;;1.52;1.15;;;26.40;78.80;;;;;;5043900;28;20507;-62
2022/07/25 12:15:32;;;;;;;8.88;1.88;;;26.40;78.60;;;;;;5053535;28;20529;-63
2022/07/25 12:17:58;;;;;;;1.25;0.75;;;26.30;78.50;;;;;;5052738;28;20143;-62
2022/07/25 12:20:30;;;;;;;1.75;0.93;;;26.40;78.70;;;;;;5055100;28;20108;-63
2022/07/25 12:22:59;;;;;;;7.10;1.08;;;26.40;78.30;;;;;;5049925;28;20104;-63
2022/07/25 12:25:24;;;;;;;4.88;1.15;;;26.30;77.80;;;;;;5056817;28;20036;-63
2022/07/25 12:27:51;;;;;;;6.30;0.73;;;26.30;77.90;;;;;;5052155;28;20027;-63
2022/07/25 12:30:17;;;;;;;4.80;0.95;;;26.30;77.40;;;;;;5056224;28;20513;-63
2022/07/25 12:32:43;;;;;;;1.75;0.70;;;26.20;77.40;;;;;;5056214;28;20052;-63
2022/07/25 12:35:10;;;;;;;3.20;1.27;;;26.30;77.20;;;;;;5055380;28;20036;-63
2022/07/25 12:37:36;;;;;;;4.35;1.45;;;26.20;77.40;;;;;;5050533;28;20037;-63
2022/07/25 12:40:03;;;;;;;1.30;0.85;;;26.20;77.80;;;;;;5049238;28;20383;-63
2022/07/25 12:42:29;;;;;;;0.95;0.93;;;26.20;77.70;;;;;;5059472;28;20036;-63
2022/07/25 12:44:55;;;;;;;4.78;0.90;;;26.20;77.40;;;;;;5056905;28;20392;-64
2022/07/25 12:47:26;;;;;;;4.50;1.13;;;26.20;77.10;;;;;;5052531;28;20029;-63